Queen Of Cowichan — CZ4990 — position and weather

sailwx.info

Track history (hours):
 
Tides and Currents Weather Stations Pressure Air Temp Water Temp Dewpoint Dewpoint Depression Visibility Wind Speed Wind Dir Waves Ship Positions

Queen Of Cowichan

Last reported at 2016-Jun-01 01:11 UTC. Time now 2016-Jun-01 05:34 UTC.
Position N 49°12' W 123°57'.

Length 139 m; draft 5.5 m.

Type: Passenger vessel. MMSI: 316001251.

Date/timePositionNaut miles runAvg speedWind from/ knotsBaromVisibWave heightAir tempDewpointWater temp
2016-Jun-01 01:11N 49°12' W 123°57'0 0.0
2016-May-31 23:32N 49°12' W 123°57'0 0.0
2016-May-31 22:20N 49°12' W 123°57'0 0.0
2016-May-31 20:32N 49°12' W 123°57'0 0.0
2016-May-31 19:20N 49°12' W 123°57'0 0.0
2016-May-31 18:32N 49°12' W 123°57'0 0.0
2016-May-31 17:14N 49°12' W 123°57'0 0.0
2016-May-31 16:32N 49°12' W 123°57'0 0.0
2016-May-31 15:26N 49°12' W 123°57'0 0.0
2016-May-31 13:32N 49°12' W 123°57'0 0.0
2016-May-31 12:32N 49°12' W 123°57'0 0.0
2016-May-31 11:32N 49°12' W 123°57'0 0.0
2016-May-31 08:14N 49°12' W 123°57'0 0.0
2016-May-31 07:26N 49°12' W 123°57'0 0.0
2016-May-31 06:11N 49°12' W 123°57'0 0.0
2016-May-31 02:14N 49°12' W 123°57'0 0.0
2016-May-31 00:32N 49°12' W 123°57'0 0.0
2016-May-30 18:26N 49°12' W 123°57'0 0.0
2016-May-30 14:08N 49°12' W 123°57'0 0.0
2016-May-30 13:29N 49°12' W 123°57'0 0.0
2016-May-30 12:29N 49°12' W 123°57'0 0.0
2016-May-30 11:20N 49°12' W 123°57'0 0.0
2016-May-30 10:14N 49°12' W 123°57'0 0.0
2016-May-30 09:32N 49°12' W 123°57'0 0.0
2016-May-30 08:26N 49°12' W 123°57'0 0.0
2016-May-30 07:32N 49°12' W 123°57'0 0.3
2016-May-30 06:34N 49°12' W 123°57'2019.8
2016-May-30 05:34N 49°18' W 123°29'9 9.0
2016-May-30 04:34N 49°23' W 123°16'1616.2
2016-May-30 03:33N 49°16' W 123°39'1312.5
2016-May-30 02:32N 49°12' W 123°57'1312.8
2016-May-30 01:33N 49°16' W 123°40'1615.9
2016-May-30 00:32N 49°23' W 123°16'6 6.1
2016-May-29 23:33N 49°19' W 123°23'2020.1
2016-May-29 22:33N 49°14' W 123°53'3 2.6
2016-May-29 21:33N 49°12' W 123°57'2019.8
2016-May-29 20:33N 49°19' W 123°28'9 8.6
2016-May-29 19:33N 49°23' W 123°16'1312.6
2016-May-29 18:33N 49°16' W 123°33'1713.1
2016-May-29 17:18N 49°12' W 123°57'1013.4
2016-May-29 16:33N 49°16' W 123°43'1919.0
2016-May-29 15:34N 49°23' W 123°16'6 6.0
2016-May-29 14:33N 49°19' W 123°23'2120.7
2016-May-29 13:34N 49°13' W 123°54'3 0.7
2016-May-29 09:26N 49°12' W 123°57'0 0.0
2016-May-29 06:13N 49°12' W 123°57'1116.5
2016-May-29 05:34N 49°16' W 123°42'1818.0
2016-May-29 04:33N 49°23' W 123°16'8 8.4
2016-May-29 03:33N 49°18' W 123°27'2020.1
2016-May-29 02:34N 49°12' W 123°57'6 5.9
2016-May-29 01:34N 49°15' W 123°48'2019.9
2016-May-29 00:34N 49°21' W 123°20'1 0.8
2016-May-28 23:34N 49°21' W 123°20'1919.4
2016-May-28 22:33N 49°15' W 123°49'6 6.3
2016-May-28 21:33N 49°12' W 123°57'1818.4
2016-May-28 20:34N 49°18' W 123°31'1010.3
2016-May-28 19:33N 49°23' W 123°16'1313.1
2016-May-28 18:34N 49°17' W 123°34'1613.4
2016-May-28 17:22N 49°12' W 123°57'1012.7
2016-May-28 16:34N 49°16' W 123°43'1918.8
2016-May-28 15:33N 49°23' W 123°16'6 6.4
2016-May-28 14:34N 49°19' W 123°24'2020.0
2016-May-28 13:34N 49°14' W 123°54'3 1.3
2016-May-28 11:14N 49°12' W 123°57'0 0.0
2016-May-28 10:26N 49°12' W 123°57'0 0.0
2016-May-28 06:25N 49°12' W 123°57'1416.6
2016-May-28 05:33N 49°18' W 123°38'1514.8
2016-May-28 04:34N 49°23' W 123°16'1312.6
2016-May-28 03:34N 49°16' W 123°33'1716.3
2016-May-28 02:33N 49°12' W 123°57'1211.8
2016-May-28 01:33N 49°17' W 123°42'1817.4
2016-May-28 00:33N 49°23' W 123°16'5 5.3
2016-May-27 23:33N 49°19' W 123°22'2020.3
2016-May-27 22:33N 49°14' W 123°52'4 3.7
2016-May-27 21:33N 49°12' W 123°57'1918.8
2016-May-27 20:34N 49°18' W 123°30'1010.0
2016-May-27 19:33N 49°23' W 123°16'1312.7
2016-May-27 18:33N 49°17' W 123°34'1615.2
2016-May-27 17:29N 49°12' W 123°57'1011.1
2016-May-27 16:34N 49°16' W 123°43'1918.8
2016-May-27 15:33N 49°23' W 123°16'6 5.9
2016-May-27 14:33N 49°19' W 123°23'2020.1
2016-May-27 13:33N 49°14' W 123°53'3 0.5
2016-May-27 06:13N 49°12' W 123°57'1218.0
2016-May-27 05:33N 49°17' W 123°41'1717.2
2016-May-27 04:33N 49°23' W 123°16'10 9.5
2016-May-27 03:33N 49°18' W 123°29'1919.4
2016-May-27 02:34N 49°12' W 123°57'8 7.5
2016-May-27 01:33N 49°16' W 123°47'2019.7
2016-May-27 00:33N 49°22' W 123°19'4 4.5
2016-May-26 23:33N 49°19' W 123°24'2019.9
2016-May-26 22:33N 49°14' W 123°53'2 2.5
2016-May-26 21:33N 49°12' W 123°56'1919.5
2016-May-26 20:34N 49°19' W 123°28'9 8.4
2016-May-26 19:32N 49°23' W 123°16'1414.6
2016-May-26 18:34N 49°16' W 123°36'1510.8
2016-May-26 17:11N 49°12' W 123°57'1016.6
2016-May-26 16:33N 49°16' W 123°43'1918.6
2016-May-26 15:33N 49°23' W 123°16'7 6.7
2016-May-26 14:34N 49°19' W 123°24'2019.7
2016-May-26 13:33N 49°12' W 123°53'3 0.4
2016-May-26 06:14N 49°12' W 123°57'1014.9
2016-May-26 05:33N 49°16' W 123°44'1919.0
2016-May-26 04:34N 49°23' W 123°16'9 9.2
2016-May-26 03:33N 49°18' W 123°28'1919.5
2016-May-26 02:33N 49°12' W 123°57'8 7.8
2016-May-26 01:33N 49°16' W 123°46'1919.5
2016-May-26 00:34N 49°23' W 123°18'4 4.2
2016-May-25 23:33N 49°19' W 123°22'2019.8
2016-May-25 22:33N 49°14' W 123°51'4 4.3
2016-May-25 21:33N 49°12' W 123°57'1919.3
2016-May-25 20:34N 49°18' W 123°30'10 8.4
2016-May-25 19:24N 49°23' W 123°16'1315.9
2016-May-25 18:34N 49°16' W 123°34'1611.7
2016-May-25 17:13N 49°12' W 123°57'1015.3
2016-May-25 16:34N 49°16' W 123°43'1918.9
2016-May-25 15:34N 49°23' W 123°16'5 5.3
2016-May-25 14:33N 49°19' W 123°22'2020.3
2016-May-25 13:33N 49°14' W 123°52'4 0.6
2016-May-25 06:31N 49°12' W 123°57'1414.1
2016-May-25 05:34N 49°17' W 123°38'1515.3
2016-May-25 04:34N 49°23' W 123°16'1212.0
2016-May-25 03:33N 49°16' W 123°32'10 4.9
2016-May-25 01:33N 49°15' W 123°47'2019.6
2016-May-25 00:33N 49°22' W 123°19'3 2.6
2016-May-24 23:34N 49°20' W 123°21'2020.0
2016-May-24 22:33N 49°14' W 123°50'5 5.3
2016-May-24 21:33N 49°12' W 123°57'1818.2
2016-May-24 20:34N 49°18' W 123°32'11 9.1
2016-May-24 19:21N 49°23' W 123°16'1316.4
2016-May-24 18:33N 49°16' W 123°34'1610.7
2016-May-24 17:05N 49°12' W 123°57'918.0
2016-May-24 16:33N 49°15' W 123°44'1919.4
2016-May-24 15:33N 49°23' W 123°16'7 7.1
2016-May-24 14:34N 49°19' W 123°25'2020.3
2016-May-24 13:33N 49°13' W 123°55'2 0.6
2016-May-24 10:32N 49°12' W 123°57'0 0.0
2016-May-24 09:32N 49°12' W 123°57'0 0.0
2016-May-24 08:32N 49°12' W 123°57'0 0.0
2016-May-24 07:30N 49°12' W 123°57'1414.8
2016-May-24 06:34N 49°16' W 123°37'1514.7
2016-May-24 05:32N 49°23' W 123°16'9 8.7
2016-May-24 04:33N 49°26' W 123°28'9 7.9
2016-May-24 03:28N 49°23' W 123°16'1415.7
2016-May-24 02:34N 49°16' W 123°36'1513.8
2016-May-24 01:29N 49°12' W 123°57'1212.6
2016-May-24 00:34N 49°16' W 123°41'1712.1
2016-May-23 23:08N 49°23' W 123°16'814.5
2016-May-23 22:33N 49°18' W 123°27'2019.7
2016-May-23 21:34N 49°13' W 123°56'3 2.6
2016-May-23 20:34N 49°14' W 123°53'2020.2
2016-May-23 19:34N 49°19' W 123°23'6 5.9
2016-May-23 18:34N 49°24' W 123°17'8 7.7
2016-May-23 17:33N 49°26' W 123°28'9 8.5
2016-May-23 16:33N 49°23' W 123°16'1313.4
2016-May-23 15:33N 49°16' W 123°34'1611.6
2016-May-23 14:12N 49°12' W 123°57'0 0.0
2016-May-23 13:06N 49°12' W 123°57'0 0.0
2016-May-23 08:33N 49°12' W 123°57'0 0.0
2016-May-23 07:33N 49°12' W 123°57'0 0.0
2016-May-23 06:21N 49°12' W 123°57'0 0.0
2016-May-23 04:33N 49°12' W 123°57'0 0.0
2016-May-23 02:09N 49°12' W 123°57'0 0.0
2016-May-22 17:21N 49°12' W 123°57'0 0.0
2016-May-22 15:33N 49°12' W 123°57'0 0.0
2016-May-22 13:27N 49°12' W 123°57'0 0.0
2016-May-22 10:21N 49°12' W 123°57'0 0.0
2016-May-22 09:33N 49°12' W 123°57'0 0.0
2016-May-22 08:24N 49°12' W 123°57'0 0.0
2016-May-22 06:33N 49°12' W 123°57'0 0.0
2016-May-22 04:21N 49°12' W 123°57'0 0.0
2016-May-22 03:33N 49°12' W 123°57'0 0.0
2016-May-22 01:30N 49°12' W 123°57'  
Track history (hours):
 
Tides and Currents Weather Stations Pressure Air Temp Water Temp Dewpoint Dewpoint Depression Visibility Wind Speed Wind Dir Waves Ship Positions

Queen Of Cowichan

Last reported at 2016-Jun-01 01:11 UTC. Time now 2016-Jun-01 05:34 UTC.
Position N 49°12' W 123°57'.

Length 139 m; draft 5.5 m.

Type: Passenger vessel. MMSI: 316001251.

Date/timePositionNaut miles runAvg speedWind from/ knotsBaromVisibWave heightAir tempDewpointWater temp
2016-Jun-01 01:11N 49°12' W 123°57'0 0.0
2016-May-31 23:32N 49°12' W 123°57'0 0.0
2016-May-31 22:20N 49°12' W 123°57'0 0.0
2016-May-31 20:32N 49°12' W 123°57'0 0.0
2016-May-31 19:20N 49°12' W 123°57'0 0.0
2016-May-31 18:32N 49°12' W 123°57'0 0.0
2016-May-31 17:14N 49°12' W 123°57'0 0.0
2016-May-31 16:32N 49°12' W 123°57'0 0.0
2016-May-31 15:26N 49°12' W 123°57'0 0.0
2016-May-31 13:32N 49°12' W 123°57'0 0.0
2016-May-31 12:32N 49°12' W 123°57'0 0.0
2016-May-31 11:32N 49°12' W 123°57'0 0.0
2016-May-31 08:14N 49°12' W 123°57'0 0.0
2016-May-31 07:26N 49°12' W 123°57'0 0.0
2016-May-31 06:11N 49°12' W 123°57'0 0.0
2016-May-31 02:14N 49°12' W 123°57'0 0.0
2016-May-31 00:32N 49°12' W 123°57'0 0.0
2016-May-30 18:26N 49°12' W 123°57'0 0.0
2016-May-30 14:08N 49°12' W 123°57'0 0.0
2016-May-30 13:29N 49°12' W 123°57'0 0.0
2016-May-30 12:29N 49°12' W 123°57'0 0.0
2016-May-30 11:20N 49°12' W 123°57'0 0.0
2016-May-30 10:14N 49°12' W 123°57'0 0.0
2016-May-30 09:32N 49°12' W 123°57'0 0.0
2016-May-30 08:26N 49°12' W 123°57'0 0.0
2016-May-30 07:32N 49°12' W 123°57'0 0.3
2016-May-30 06:34N 49°12' W 123°57'2019.8
2016-May-30 05:34N 49°18' W 123°29'9 9.0
2016-May-30 04:34N 49°23' W 123°16'1616.2
2016-May-30 03:33N 49°16' W 123°39'1312.5
2016-May-30 02:32N 49°12' W 123°57'1312.8
2016-May-30 01:33N 49°16' W 123°40'1615.9
2016-May-30 00:32N 49°23' W 123°16'6 6.1
2016-May-29 23:33N 49°19' W 123°23'2020.1
2016-May-29 22:33N 49°14' W 123°53'3 2.6
2016-May-29 21:33N 49°12' W 123°57'2019.8
2016-May-29 20:33N 49°19' W 123°28'9 8.6
2016-May-29 19:33N 49°23' W 123°16'1312.6
2016-May-29 18:33N 49°16' W 123°33'1713.1
2016-May-29 17:18N 49°12' W 123°57'1013.4
2016-May-29 16:33N 49°16' W 123°43'1919.0
2016-May-29 15:34N 49°23' W 123°16'6 6.0
2016-May-29 14:33N 49°19' W 123°23'2120.7
2016-May-29 13:34N 49°13' W 123°54'3 0.7
2016-May-29 09:26N 49°12' W 123°57'0 0.0
2016-May-29 06:13N 49°12' W 123°57'1116.5
2016-May-29 05:34N 49°16' W 123°42'1818.0
2016-May-29 04:33N 49°23' W 123°16'8 8.4
2016-May-29 03:33N 49°18' W 123°27'2020.1
2016-May-29 02:34N 49°12' W 123°57'6 5.9
2016-May-29 01:34N 49°15' W 123°48'2019.9
2016-May-29 00:34N 49°21' W 123°20'1 0.8
2016-May-28 23:34N 49°21' W 123°20'1919.4
2016-May-28 22:33N 49°15' W 123°49'6 6.3
2016-May-28 21:33N 49°12' W 123°57'1818.4
2016-May-28 20:34N 49°18' W 123°31'1010.3
2016-May-28 19:33N 49°23' W 123°16'1313.1
2016-May-28 18:34N 49°17' W 123°34'1613.4
2016-May-28 17:22N 49°12' W 123°57'1012.7
2016-May-28 16:34N 49°16' W 123°43'1918.8
2016-May-28 15:33N 49°23' W 123°16'6 6.4
2016-May-28 14:34N 49°19' W 123°24'2020.0
2016-May-28 13:34N 49°14' W 123°54'3 1.3
2016-May-28 11:14N 49°12' W 123°57'0 0.0
2016-May-28 10:26N 49°12' W 123°57'0 0.0
2016-May-28 06:25N 49°12' W 123°57'1416.6
2016-May-28 05:33N 49°18' W 123°38'1514.8
2016-May-28 04:34N 49°23' W 123°16'1312.6
2016-May-28 03:34N 49°16' W 123°33'1716.3
2016-May-28 02:33N 49°12' W 123°57'1211.8
2016-May-28 01:33N 49°17' W 123°42'1817.4
2016-May-28 00:33N 49°23' W 123°16'5 5.3
2016-May-27 23:33N 49°19' W 123°22'2020.3
2016-May-27 22:33N 49°14' W 123°52'4 3.7
2016-May-27 21:33N 49°12' W 123°57'1918.8
2016-May-27 20:34N 49°18' W 123°30'1010.0
2016-May-27 19:33N 49°23' W 123°16'1312.7
2016-May-27 18:33N 49°17' W 123°34'1615.2
2016-May-27 17:29N 49°12' W 123°57'1011.1
2016-May-27 16:34N 49°16' W 123°43'1918.8
2016-May-27 15:33N 49°23' W 123°16'6 5.9
2016-May-27 14:33N 49°19' W 123°23'2020.1
2016-May-27 13:33N 49°14' W 123°53'3 0.5
2016-May-27 06:13N 49°12' W 123°57'1218.0
2016-May-27 05:33N 49°17' W 123°41'1717.2
2016-May-27 04:33N 49°23' W 123°16'10 9.5
2016-May-27 03:33N 49°18' W 123°29'1919.4
2016-May-27 02:34N 49°12' W 123°57'8 7.5
2016-May-27 01:33N 49°16' W 123°47'2019.7
2016-May-27 00:33N 49°22' W 123°19'4 4.5
2016-May-26 23:33N 49°19' W 123°24'2019.9
2016-May-26 22:33N 49°14' W 123°53'2 2.5
2016-May-26 21:33N 49°12' W 123°56'1919.5
2016-May-26 20:34N 49°19' W 123°28'9 8.4
2016-May-26 19:32N 49°23' W 123°16'1414.6
2016-May-26 18:34N 49°16' W 123°36'1510.8
2016-May-26 17:11N 49°12' W 123°57'1016.6
2016-May-26 16:33N 49°16' W 123°43'1918.6
2016-May-26 15:33N 49°23' W 123°16'7 6.7
2016-May-26 14:34N 49°19' W 123°24'2019.7
2016-May-26 13:33N 49°12' W 123°53'3 0.4
2016-May-26 06:14N 49°12' W 123°57'1014.9
2016-May-26 05:33N 49°16' W 123°44'1919.0
2016-May-26 04:34N 49°23' W 123°16'9 9.2
2016-May-26 03:33N 49°18' W 123°28'1919.5
2016-May-26 02:33N 49°12' W 123°57'8 7.8
2016-May-26 01:33N 49°16' W 123°46'1919.5
2016-May-26 00:34N 49°23' W 123°18'4 4.2
2016-May-25 23:33N 49°19' W 123°22'2019.8
2016-May-25 22:33N 49°14' W 123°51'4 4.3
2016-May-25 21:33N 49°12' W 123°57'1919.3
2016-May-25 20:34N 49°18' W 123°30'10 8.4
2016-May-25 19:24N 49°23' W 123°16'1315.9
2016-May-25 18:34N 49°16' W 123°34'1611.7
2016-May-25 17:13N 49°12' W 123°57'1015.3
2016-May-25 16:34N 49°16' W 123°43'1918.9
2016-May-25 15:34N 49°23' W 123°16'5 5.3
2016-May-25 14:33N 49°19' W 123°22'2020.3
2016-May-25 13:33N 49°14' W 123°52'4 0.6
2016-May-25 06:31N 49°12' W 123°57'1414.1
2016-May-25 05:34N 49°17' W 123°38'1515.3
2016-May-25 04:34N 49°23' W 123°16'1212.0
2016-May-25 03:33N 49°16' W 123°32'10 4.9
2016-May-25 01:33N 49°15' W 123°47'2019.6
2016-May-25 00:33N 49°22' W 123°19'3 2.6
2016-May-24 23:34N 49°20' W 123°21'2020.0
2016-May-24 22:33N 49°14' W 123°50'5 5.3
2016-May-24 21:33N 49°12' W 123°57'1818.2
2016-May-24 20:34N 49°18' W 123°32'11 9.1
2016-May-24 19:21N 49°23' W 123°16'1316.4
2016-May-24 18:33N 49°16' W 123°34'1610.7
2016-May-24 17:05N 49°12' W 123°57'918.0
2016-May-24 16:33N 49°15' W 123°44'1919.4
2016-May-24 15:33N 49°23' W 123°16'7 7.1
2016-May-24 14:34N 49°19' W 123°25'2020.3
2016-May-24 13:33N 49°13' W 123°55'2 0.6
2016-May-24 10:32N 49°12' W 123°57'0 0.0
2016-May-24 09:32N 49°12' W 123°57'0 0.0
2016-May-24 08:32N 49°12' W 123°57'0 0.0
2016-May-24 07:30N 49°12' W 123°57'1414.8
2016-May-24 06:34N 49°16' W 123°37'1514.7
2016-May-24 05:32N 49°23' W 123°16'9 8.7
2016-May-24 04:33N 49°26' W 123°28'9 7.9
2016-May-24 03:28N 49°23' W 123°16'1415.7
2016-May-24 02:34N 49°16' W 123°36'1513.8
2016-May-24 01:29N 49°12' W 123°57'1212.6
2016-May-24 00:34N 49°16' W 123°41'1712.1
2016-May-23 23:08N 49°23' W 123°16'814.5
2016-May-23 22:33N 49°18' W 123°27'2019.7
2016-May-23 21:34N 49°13' W 123°56'3 2.6
2016-May-23 20:34N 49°14' W 123°53'2020.2
2016-May-23 19:34N 49°19' W 123°23'6 5.9
2016-May-23 18:34N 49°24' W 123°17'8 7.7
2016-May-23 17:33N 49°26' W 123°28'9 8.5
2016-May-23 16:33N 49°23' W 123°16'1313.4
2016-May-23 15:33N 49°16' W 123°34'1611.6
2016-May-23 14:12N 49°12' W 123°57'0 0.0
2016-May-23 13:06N 49°12' W 123°57'0 0.0
2016-May-23 08:33N 49°12' W 123°57'0 0.0
2016-May-23 07:33N 49°12' W 123°57'0 0.0
2016-May-23 06:21N 49°12' W 123°57'0 0.0
2016-May-23 04:33N 49°12' W 123°57'0 0.0
2016-May-23 02:09N 49°12' W 123°57'0 0.0
2016-May-22 17:21N 49°12' W 123°57'0 0.0
2016-May-22 15:33N 49°12' W 123°57'0 0.0
2016-May-22 13:27N 49°12' W 123°57'0 0.0
2016-May-22 10:21N 49°12' W 123°57'0 0.0
2016-May-22 09:33N 49°12' W 123°57'0 0.0
2016-May-22 08:24N 49°12' W 123°57'0 0.0
2016-May-22 06:33N 49°12' W 123°57'0 0.0
2016-May-22 04:21N 49°12' W 123°57'0 0.0
2016-May-22 03:33N 49°12' W 123°57'0 0.0
2016-May-22 01:30N 49°12' W 123°57'  

Dump ship's entire track history